createdAt,value
2017-10-23T00:01:40.055Z,13.19
2017-10-23T00:04:07.723Z,13.10
2017-10-23T00:06:35.344Z,13.06
2017-10-23T00:09:03.156Z,13.14
2017-10-23T00:11:31.656Z,13.18
2017-10-23T00:13:59.269Z,13.18
2017-10-23T00:16:26.929Z,13.26
2017-10-23T00:18:54.605Z,13.34
2017-10-23T00:21:22.212Z,13.45
2017-10-23T00:23:49.936Z,13.49
2017-10-23T00:26:17.612Z,13.45
2017-10-23T00:28:45.216Z,13.43
2017-10-23T00:31:12.868Z,13.52
2017-10-23T00:33:40.479Z,13.60
2017-10-23T00:36:08.095Z,13.66
2017-10-23T00:38:35.747Z,13.65
2017-10-23T00:41:03.360Z,13.58
2017-10-23T00:43:30.960Z,13.47
2017-10-23T00:45:58.628Z,13.39
2017-10-23T00:48:26.243Z,13.33
2017-10-23T00:50:53.859Z,13.27
2017-10-23T00:53:21.521Z,13.24
2017-10-23T00:55:49.200Z,13.23
2017-10-23T00:58:16.936Z,13.26
2017-10-23T01:00:44.739Z,13.27
2017-10-23T01:03:12.343Z,13.27
2017-10-23T01:05:39.961Z,13.30
2017-10-23T01:08:07.623Z,13.35
2017-10-23T01:10:35.219Z,13.34
2017-10-23T01:13:02.888Z,13.32
2017-10-23T01:15:30.623Z,13.29
2017-10-23T01:17:58.240Z,13.29
2017-10-23T01:20:25.936Z,13.26
2017-10-23T01:22:53.592Z,13.30
2017-10-23T01:25:21.260Z,13.38
2017-10-23T01:27:48.912Z,13.41
2017-10-23T01:30:16.588Z,13.42
2017-10-23T01:32:44.196Z,13.44
2017-10-23T01:35:11.816Z,13.49
2017-10-23T01:37:39.540Z,13.58
2017-10-23T01:40:07.153Z,13.64
2017-10-23T01:42:34.764Z,13.73
2017-10-23T01:45:02.502Z,13.81
2017-10-23T01:47:30.115Z,13.87
2017-10-23T01:49:57.723Z,13.89
2017-10-23T01:52:25.433Z,13.94
2017-10-23T01:54:53.043Z,14.00
2017-10-23T01:57:20.703Z,14.06
2017-10-23T01:59:48.428Z,14.07
2017-10-23T02:02:16.173Z,14.09
2017-10-23T02:04:43.794Z,14.12
2017-10-23T02:07:11.439Z,14.15
2017-10-23T02:09:39.060Z,14.20
2017-10-23T02:12:06.725Z,14.25
2017-10-23T02:14:34.440Z,14.27
2017-10-23T02:17:02.059Z,14.28
2017-10-23T02:19:29.675Z,14.24
2017-10-23T02:21:57.339Z,14.33
2017-10-23T02:24:25.008Z,14.39
2017-10-23T02:26:52.615Z,14.47
2017-10-23T02:29:20.260Z,14.49
2017-10-23T02:31:47.931Z,14.51
2017-10-23T02:34:15.548Z,14.51
2017-10-23T02:36:43.192Z,14.52
2017-10-23T02:39:10.860Z,14.51
2017-10-23T02:41:38.528Z,14.49
2017-10-23T02:44:06.180Z,14.44
2017-10-23T02:46:33.784Z,14.43
2017-10-23T02:49:01.399Z,14.39
2017-10-23T02:51:29.040Z,14.41
2017-10-23T02:53:56.639Z,14.39
2017-10-23T02:56:24.236Z,14.40
2017-10-23T02:58:51.981Z,14.44
2017-10-23T03:01:19.647Z,14.50
2017-10-23T03:03:47.263Z,14.57
2017-10-23T03:06:14.907Z,14.58
2017-10-23T03:08:42.520Z,14.60
2017-10-23T03:11:10.172Z,14.60
2017-10-23T03:13:37.852Z,14.57
2017-10-23T03:16:05.518Z,14.59
2017-10-23T03:18:33.189Z,14.57
2017-10-23T03:21:00.863Z,14.51
2017-10-23T03:23:28.487Z,14.51
2017-10-23T03:25:56.110Z,14.49
2017-10-23T03:28:23.868Z,14.48
2017-10-23T03:30:51.497Z,14.42
2017-10-23T03:33:19.110Z,14.38
2017-10-23T03:35:46.844Z,14.33
2017-10-23T03:38:14.460Z,14.33
2017-10-23T03:40:42.076Z,14.35
2017-10-23T03:43:09.743Z,14.32
2017-10-23T03:45:37.403Z,14.33
2017-10-23T03:48:05.007Z,14.35
2017-10-23T03:50:32.688Z,14.36
2017-10-23T03:53:00.363Z,14.37
2017-10-23T03:55:27.977Z,14.38
2017-10-23T03:57:55.655Z,14.37
2017-10-23T04:00:23.447Z,14.36
2017-10-23T04:02:51.055Z,14.38
2017-10-23T04:05:18.836Z,14.39
2017-10-23T04:07:46.447Z,14.38
2017-10-23T04:10:14.056Z,14.39
2017-10-23T04:12:41.727Z,14.41
2017-10-23T04:15:09.500Z,14.40
2017-10-23T04:17:37.122Z,14.44
2017-10-23T04:20:04.884Z,14.49
2017-10-23T04:22:32.562Z,14.51
2017-10-23T04:25:00.239Z,14.56
2017-10-23T04:27:27.911Z,14.56
2017-10-23T04:29:55.584Z,14.57
2017-10-23T04:32:23.212Z,14.54
2017-10-23T04:34:50.879Z,14.48
2017-10-23T04:37:18.592Z,14.45
2017-10-23T04:39:46.276Z,14.44
2017-10-23T04:42:13.999Z,14.41
2017-10-23T04:44:41.629Z,14.43
2017-10-23T04:47:09.263Z,14.44
2017-10-23T04:49:36.922Z,14.40
2017-10-23T04:52:04.551Z,14.36
2017-10-23T04:54:32.230Z,14.32
2017-10-23T04:56:59.979Z,14.31
2017-10-23T04:59:27.615Z,14.28
2017-10-23T05:01:55.279Z,14.29
2017-10-23T05:04:22.956Z,14.38
2017-10-23T05:06:50.637Z,14.45
2017-10-23T05:09:18.242Z,14.43
2017-10-23T05:11:45.965Z,14.49
2017-10-23T05:14:13.651Z,14.55
2017-10-23T05:16:41.261Z,14.58
2017-10-23T05:19:08.928Z,14.70
2017-10-23T05:21:36.616Z,14.78
2017-10-23T05:24:04.302Z,14.88
2017-10-23T05:26:31.967Z,14.96
2017-10-23T05:28:59.579Z,15.01
2017-10-23T05:31:27.217Z,15.08
2017-10-23T05:33:54.903Z,15.10
2017-10-23T05:36:22.527Z,15.10
2017-10-23T05:38:50.174Z,15.11
2017-10-23T05:41:17.855Z,15.16
2017-10-23T05:43:45.556Z,15.25
2017-10-23T05:46:13.210Z,15.35
2017-10-23T05:48:40.872Z,15.49
2017-10-23T05:51:08.489Z,15.57
2017-10-23T05:53:36.108Z,15.69
2017-10-23T05:56:03.801Z,15.79
2017-10-23T05:58:31.498Z,15.96
2017-10-23T06:00:59.224Z,16.16
2017-10-23T06:03:26.896Z,16.36
2017-10-23T06:05:54.519Z,16.53
2017-10-23T06:08:22.200Z,16.72
2017-10-23T06:10:49.867Z,16.94
2017-10-23T06:13:17.596Z,17.11
2017-10-23T06:15:45.275Z,17.27
2017-10-23T06:18:12.941Z,17.38
2017-10-23T06:20:40.796Z,17.49
2017-10-23T06:23:08.452Z,17.63
2017-10-23T06:25:36.131Z,17.64
2017-10-23T06:28:03.755Z,17.72
2017-10-23T06:30:31.424Z,17.79
2017-10-23T06:32:59.187Z,17.95
2017-10-23T06:35:26.825Z,18.10
2017-10-23T06:37:54.451Z,18.18
2017-10-23T06:40:22.219Z,18.37
2017-10-23T06:42:49.904Z,18.56
2017-10-23T06:45:17.521Z,18.68
2017-10-23T06:47:45.191Z,18.73
2017-10-23T06:50:12.850Z,18.83
2017-10-23T06:52:40.463Z,18.94
2017-10-23T06:55:08.139Z,19.10
2017-10-23T06:57:35.860Z,19.21
2017-10-23T07:00:03.495Z,19.11
2017-10-23T07:02:31.267Z,19.18
2017-10-23T07:04:58.943Z,19.18
2017-10-23T07:07:26.611Z,19.30
2017-10-23T07:09:54.351Z,19.42
2017-10-23T07:12:22.015Z,19.59
2017-10-23T07:14:49.702Z,19.87
2017-10-23T07:17:17.391Z,20.11
2017-10-23T07:19:45.065Z,20.34
2017-10-23T07:22:12.667Z,20.47
2017-10-23T07:24:40.471Z,20.41
2017-10-23T07:27:08.140Z,20.34
2017-10-23T07:29:35.744Z,20.31
2017-10-23T07:32:03.396Z,20.51
2017-10-23T07:34:31.083Z,20.61
2017-10-23T07:36:58.751Z,20.76
2017-10-23T07:39:26.404Z,20.97
2017-10-23T07:41:54.031Z,21.22
2017-10-23T07:44:21.691Z,21.20
2017-10-23T07:46:49.366Z,21.32
2017-10-23T07:49:16.975Z,21.18
2017-10-23T07:51:44.574Z,21.17
2017-10-23T07:54:12.283Z,21.18
2017-10-23T07:56:39.948Z,21.17
2017-10-23T07:59:07.616Z,21.15
2017-10-23T08:01:35.296Z,21.07
2017-10-23T08:04:02.921Z,21.17
2017-10-23T08:06:30.531Z,21.22
2017-10-23T08:08:58.189Z,21.38
2017-10-23T08:11:25.863Z,21.54
2017-10-23T08:13:53.520Z,21.59
2017-10-23T08:16:21.194Z,21.61
2017-10-23T08:18:48.865Z,21.72
2017-10-23T08:21:16.533Z,21.84
2017-10-23T08:23:44.335Z,21.95
2017-10-23T08:26:11.936Z,22.03
2017-10-23T08:28:39.535Z,22.12
2017-10-23T08:31:07.240Z,22.25
2017-10-23T08:33:34.904Z,22.36
2017-10-23T08:36:02.517Z,22.43
2017-10-23T08:38:30.181Z,22.50
2017-10-23T08:40:57.835Z,22.61
2017-10-23T08:43:25.495Z,22.69
2017-10-23T08:45:53.208Z,22.84
2017-10-23T08:48:20.811Z,22.92
2017-10-23T08:50:48.414Z,22.94
2017-10-23T08:53:16.148Z,23.06
2017-10-23T08:55:43.760Z,23.09
2017-10-23T08:58:11.376Z,23.08
2017-10-23T09:00:39.128Z,23.17
2017-10-23T09:03:06.732Z,23.21
2017-10-23T09:05:34.356Z,23.30
2017-10-23T09:08:02.083Z,23.31
2017-10-23T09:10:29.768Z,23.42
2017-10-23T09:12:57.384Z,23.48
2017-10-23T09:15:25.197Z,23.60
2017-10-23T09:17:52.809Z,23.64
2017-10-23T09:20:20.477Z,23.74
2017-10-23T09:22:48.128Z,23.80
2017-10-23T09:25:15.742Z,23.72
2017-10-23T09:27:43.406Z,23.82
2017-10-23T09:30:11.127Z,23.63
2017-10-23T09:32:38.795Z,23.62
2017-10-23T09:35:06.463Z,23.75
2017-10-23T09:37:34.127Z,24.01
2017-10-23T09:40:01.797Z,24.45
2017-10-23T09:42:29.399Z,24.16
2017-10-23T09:44:57.067Z,24.06
2017-10-23T09:47:24.670Z,23.89
2017-10-23T09:49:52.275Z,23.66
2017-10-23T09:52:20.003Z,23.59
2017-10-23T09:54:47.676Z,23.49
2017-10-23T09:57:15.268Z,23.52
2017-10-23T09:59:42.924Z,23.20
2017-10-23T10:02:10.542Z,22.95
2017-10-23T10:04:38.143Z,22.88
2017-10-23T10:07:05.793Z,22.80
2017-10-23T10:09:33.401Z,22.68
2017-10-23T10:12:01.068Z,22.48
2017-10-23T10:14:28.719Z,22.41
2017-10-23T10:16:56.384Z,22.48
2017-10-23T10:19:23.996Z,22.35
2017-10-23T10:21:51.722Z,22.21
2017-10-23T10:24:19.409Z,22.14
2017-10-23T10:26:47.015Z,22.03
2017-10-23T10:29:14.722Z,21.81
2017-10-23T10:31:42.385Z,21.69
2017-10-23T10:34:09.988Z,21.71
2017-10-23T10:36:37.652Z,21.66
2017-10-23T10:39:05.272Z,21.69
2017-10-23T10:41:32.882Z,21.82
2017-10-23T10:44:00.527Z,21.90
2017-10-23T10:46:28.208Z,22.22
2017-10-23T10:48:55.820Z,22.26
2017-10-23T10:51:23.476Z,22.33
2017-10-23T10:53:51.082Z,22.44
2017-10-23T10:56:18.695Z,22.56
2017-10-23T10:58:46.355Z,23.12
2017-10-23T11:01:14.023Z,23.50
2017-10-23T11:03:41.684Z,23.42
2017-10-23T11:06:09.397Z,23.65
2017-10-23T11:08:37.069Z,23.80
2017-10-23T11:11:04.680Z,24.05
2017-10-23T11:13:32.343Z,24.62
2017-10-23T11:15:59.968Z,24.92
2017-10-23T11:18:28.524Z,24.56
2017-10-23T11:20:56.181Z,24.31
2017-10-23T11:23:23.792Z,23.96
2017-10-23T11:25:51.416Z,23.84
2017-10-23T11:28:19.083Z,23.87
2017-10-23T11:30:46.762Z,23.97
2017-10-23T11:33:14.375Z,23.72
2017-10-23T11:35:42.032Z,23.58
2017-10-23T11:38:09.700Z,23.40
2017-10-23T11:40:37.380Z,23.27
2017-10-23T11:43:05.043Z,22.90
2017-10-23T11:45:32.708Z,22.50
2017-10-23T11:48:00.323Z,22.37
2017-10-23T11:50:28.049Z,22.40
2017-10-23T11:52:55.666Z,22.47
2017-10-23T11:55:23.275Z,22.54
2017-10-23T11:57:50.941Z,22.55
2017-10-23T12:00:18.556Z,22.52
2017-10-23T12:02:46.173Z,22.40
2017-10-23T12:05:13.826Z,22.44
2017-10-23T12:07:41.432Z,22.42
2017-10-23T12:10:09.112Z,22.34
2017-10-23T12:12:36.788Z,22.13
2017-10-23T12:15:04.433Z,21.96
2017-10-23T12:17:32.060Z,21.91
2017-10-23T12:19:59.864Z,21.82
2017-10-23T12:22:27.540Z,21.85
2017-10-23T12:24:55.151Z,21.83
2017-10-23T12:27:22.898Z,21.61
2017-10-23T12:29:50.515Z,21.64
2017-10-23T12:32:18.131Z,21.67
2017-10-23T12:34:45.784Z,21.60
2017-10-23T12:37:13.396Z,21.59
2017-10-23T12:39:41.079Z,21.63
2017-10-23T12:42:08.751Z,21.66
2017-10-23T12:44:36.367Z,21.69
2017-10-23T12:47:03.980Z,21.56
2017-10-23T12:49:31.692Z,21.68
2017-10-23T12:54:26.250Z,21.66
2017-10-23T12:56:53.924Z,21.55
2017-10-23T12:59:21.539Z,21.46
2017-10-23T13:01:49.157Z,21.48
2017-10-23T13:04:16.821Z,21.47
2017-10-23T13:06:44.479Z,21.40
2017-10-23T13:09:12.084Z,21.31
2017-10-23T13:11:39.757Z,21.19
2017-10-23T13:14:07.367Z,20.98
2017-10-23T13:16:35.035Z,20.84
2017-10-23T13:19:02.707Z,20.84
2017-10-23T13:21:30.324Z,20.77
2017-10-23T13:23:57.998Z,20.68
2017-10-23T13:26:25.759Z,20.57
2017-10-23T13:28:53.365Z,20.55
2017-10-23T13:31:21.052Z,20.45
2017-10-23T13:33:48.777Z,20.37
2017-10-23T13:36:16.394Z,20.29
2017-10-23T13:38:44.073Z,20.10
2017-10-23T13:41:11.802Z,19.95
2017-10-23T13:43:39.419Z,19.77
2017-10-23T13:46:07.031Z,19.48
2017-10-23T13:48:34.695Z,19.24
2017-10-23T13:51:02.313Z,18.94
2017-10-23T13:53:29.956Z,18.62
2017-10-23T13:55:57.684Z,18.48
2017-10-23T13:58:25.355Z,18.27
2017-10-23T14:00:53.053Z,18.16
2017-10-23T14:03:20.729Z,18.05
2017-10-23T14:05:48.398Z,17.99
2017-10-23T14:08:16.007Z,17.89
2017-10-23T14:10:43.683Z,17.71
2017-10-23T14:13:11.333Z,17.35
2017-10-23T14:15:38.947Z,17.04
2017-10-23T14:18:06.642Z,16.80
2017-10-23T14:20:34.340Z,16.49
2017-10-23T14:23:02.094Z,16.35
2017-10-23T14:25:29.859Z,16.27
2017-10-23T14:27:57.516Z,16.17
2017-10-23T14:30:25.304Z,15.99
2017-10-23T14:32:53.196Z,15.87
2017-10-23T14:35:20.875Z,15.82
2017-10-23T14:37:48.575Z,15.75
2017-10-23T14:40:16.303Z,15.71
2017-10-23T14:42:44.131Z,15.66
2017-10-23T14:45:11.851Z,15.63
2017-10-23T14:47:39.670Z,15.67
2017-10-23T14:50:07.365Z,15.70
2017-10-23T14:52:35.071Z,15.70
2017-10-23T14:55:02.828Z,15.71
2017-10-23T14:57:30.452Z,15.69
2017-10-23T14:59:58.112Z,15.65
2017-10-23T15:02:25.868Z,15.65
2017-10-23T15:04:53.486Z,15.61
2017-10-23T15:07:21.112Z,15.54
2017-10-23T15:09:48.774Z,15.49
2017-10-23T15:12:16.408Z,15.39
2017-10-23T15:14:44.043Z,15.32
2017-10-23T15:17:11.704Z,15.31
2017-10-23T15:19:39.378Z,15.28
2017-10-23T15:22:07.020Z,15.26
2017-10-23T15:24:34.682Z,15.21
2017-10-23T15:27:02.295Z,15.17
2017-10-23T15:29:29.900Z,15.18
2017-10-23T15:31:57.580Z,15.14
2017-10-23T15:34:25.450Z,15.12
2017-10-23T15:36:53.106Z,15.13
2017-10-23T15:39:20.824Z,15.16
2017-10-23T15:41:48.495Z,15.21
2017-10-23T15:44:16.233Z,15.22
2017-10-23T15:46:43.955Z,15.23
2017-10-23T15:49:11.595Z,15.23
2017-10-23T15:51:39.255Z,15.24
2017-10-23T15:54:07.155Z,15.25
2017-10-23T15:56:34.819Z,15.23
2017-10-23T15:59:02.428Z,15.24
2017-10-23T16:01:30.083Z,15.23
2017-10-23T16:03:58.647Z,15.28
2017-10-23T16:06:26.261Z,15.35
2017-10-23T16:08:53.932Z,15.34
2017-10-23T16:11:21.550Z,15.32
2017-10-23T16:13:49.217Z,15.30
2017-10-23T16:16:16.880Z,15.34
2017-10-23T16:18:44.554Z,15.36
2017-10-23T16:21:12.161Z,15.34
2017-10-23T16:23:39.931Z,15.37
2017-10-23T16:26:07.541Z,15.36
2017-10-23T16:28:35.224Z,15.37
2017-10-23T16:31:02.964Z,15.34
2017-10-23T16:33:30.620Z,15.36
2017-10-23T16:35:58.244Z,15.36
2017-10-23T16:38:25.907Z,15.35
2017-10-23T16:40:53.519Z,15.34
2017-10-23T16:43:21.136Z,15.34
2017-10-23T16:45:48.803Z,15.34
2017-10-23T16:48:16.422Z,15.31
2017-10-23T16:50:44.028Z,15.31
2017-10-23T16:53:11.804Z,15.33
2017-10-23T16:55:39.478Z,15.32
2017-10-23T16:58:07.099Z,15.31
2017-10-23T17:00:34.816Z,15.30
2017-10-23T17:03:02.483Z,15.32
2017-10-23T17:05:30.097Z,15.30
2017-10-23T17:07:57.760Z,15.38
2017-10-23T17:10:25.373Z,15.43
2017-10-23T17:12:53.069Z,15.40
2017-10-23T17:15:20.750Z,15.35
2017-10-23T17:17:48.360Z,15.34
2017-10-23T17:20:16.077Z,15.31
2017-10-23T17:22:43.768Z,15.26
2017-10-23T17:25:11.441Z,15.11
2017-10-23T17:27:39.052Z,15.11
2017-10-23T17:30:06.783Z,15.04
2017-10-23T17:32:34.399Z,15.01
2017-10-23T17:35:02.092Z,14.99
2017-10-23T17:37:29.818Z,14.98
2017-10-23T17:39:57.488Z,14.92
2017-10-23T17:42:25.140Z,14.89
2017-10-23T17:44:52.809Z,14.94
2017-10-23T17:47:20.422Z,14.94
2017-10-23T17:49:48.033Z,14.99
2017-10-23T17:52:15.704Z,14.99
2017-10-23T17:54:43.311Z,14.95
2017-10-23T17:57:10.919Z,14.96
2017-10-23T17:59:38.573Z,14.97
2017-10-23T18:02:06.260Z,14.86
2017-10-23T18:04:33.883Z,14.91
2017-10-23T18:07:01.554Z,14.78
2017-10-23T18:09:29.159Z,14.70
2017-10-23T18:11:56.767Z,14.63
2017-10-23T18:14:24.456Z,14.53
2017-10-23T18:16:52.125Z,14.51
2017-10-23T18:19:19.793Z,14.50
2017-10-23T18:21:47.519Z,14.53
2017-10-23T18:24:15.195Z,14.51
2017-10-23T18:26:42.802Z,14.49
2017-10-23T18:29:10.463Z,14.48
2017-10-23T18:31:38.067Z,14.49
2017-10-23T18:34:05.672Z,14.53
2017-10-23T18:36:33.335Z,14.53
2017-10-23T18:39:00.951Z,14.46
2017-10-23T18:41:28.631Z,14.41
2017-10-23T18:43:56.360Z,14.41
2017-10-23T18:46:24.032Z,14.41
2017-10-23T18:48:51.691Z,14.45
2017-10-23T18:51:19.360Z,14.51
2017-10-23T18:53:47.065Z,14.55
2017-10-23T18:56:14.738Z,14.59
2017-10-23T18:58:42.396Z,14.59
2017-10-23T19:01:10.104Z,14.64
2017-10-23T19:03:37.712Z,14.66
2017-10-23T19:06:05.383Z,14.68
2017-10-23T19:08:33.011Z,14.66
2017-10-23T19:11:00.628Z,14.69
2017-10-23T19:13:28.360Z,14.69
2017-10-23T19:15:55.974Z,14.69
2017-10-23T19:18:23.604Z,14.68
2017-10-23T19:20:51.259Z,14.71
2017-10-23T19:23:18.926Z,14.68
2017-10-23T19:25:46.536Z,14.63
2017-10-23T19:28:14.279Z,14.65
2017-10-23T19:30:41.981Z,14.65
2017-10-23T19:33:09.604Z,14.64
2017-10-23T19:35:37.285Z,14.68
2017-10-23T19:38:04.951Z,14.70
2017-10-23T19:40:32.572Z,14.74
2017-10-23T19:43:00.303Z,14.73
2017-10-23T19:45:27.939Z,14.72
2017-10-23T19:47:55.553Z,14.72
2017-10-23T19:50:23.216Z,14.71
2017-10-23T19:52:50.824Z,14.69
2017-10-23T19:55:18.443Z,14.68
2017-10-23T19:57:46.121Z,14.65
2017-10-23T20:00:13.749Z,14.62
2017-10-23T20:02:41.374Z,14.63
2017-10-23T20:05:09.078Z,14.62
2017-10-23T20:07:36.695Z,14.67
2017-10-23T20:10:04.388Z,14.71
2017-10-23T20:12:32.070Z,14.66
2017-10-23T20:14:59.715Z,14.63
2017-10-23T20:17:27.340Z,14.64
2017-10-23T20:19:55.184Z,14.60
2017-10-23T20:22:22.807Z,14.60
2017-10-23T20:24:50.427Z,14.62
2017-10-23T20:27:18.100Z,14.66
2017-10-23T20:29:45.712Z,14.63
2017-10-23T20:32:13.500Z,14.66
2017-10-23T20:34:41.220Z,14.63
2017-10-23T20:37:08.844Z,14.65
2017-10-23T20:39:36.501Z,14.61
2017-10-23T20:42:04.211Z,14.63
2017-10-23T20:44:31.827Z,14.67
2017-10-23T20:46:59.495Z,14.67
2017-10-23T20:49:27.168Z,14.67
2017-10-23T20:51:54.844Z,14.68
2017-10-23T20:54:22.455Z,14.68
2017-10-23T20:56:50.178Z,14.60
2017-10-23T20:59:17.791Z,14.60
2017-10-23T21:01:45.463Z,14.61
2017-10-23T21:04:13.112Z,14.63
2017-10-23T21:06:40.726Z,14.60
2017-10-23T21:09:08.343Z,14.60
2017-10-23T21:11:36.024Z,14.62
2017-10-23T21:14:03.639Z,14.59
2017-10-23T21:16:31.240Z,14.57
2017-10-23T21:18:58.895Z,14.59
2017-10-23T21:21:26.501Z,14.62
2017-10-23T21:23:54.118Z,14.66
2017-10-23T21:26:21.936Z,14.68
2017-10-23T21:28:49.539Z,14.69
2017-10-23T21:31:17.140Z,14.68
2017-10-23T21:33:44.799Z,14.66
2017-10-23T21:36:12.463Z,14.65
2017-10-23T21:38:40.080Z,14.63
2017-10-23T21:41:07.791Z,14.62
2017-10-23T21:43:35.461Z,14.64
2017-10-23T21:46:03.280Z,14.64
2017-10-23T21:48:30.944Z,14.65
2017-10-23T21:50:58.558Z,14.60
2017-10-23T21:53:26.221Z,14.59
2017-10-23T21:55:53.936Z,14.59
2017-10-23T21:58:21.535Z,14.58
2017-10-23T22:00:49.153Z,14.61
2017-10-23T22:03:16.804Z,14.59
2017-10-23T22:05:44.408Z,14.53
2017-10-23T22:08:12.015Z,14.48
2017-10-23T22:10:39.735Z,14.45
2017-10-23T22:13:07.339Z,14.38
2017-10-23T22:15:34.944Z,14.36
2017-10-23T22:18:02.653Z,14.36
2017-10-23T22:20:30.272Z,14.38
2017-10-23T22:22:57.875Z,14.38
2017-10-23T22:25:25.527Z,14.37
2017-10-23T22:27:53.151Z,14.41
2017-10-23T22:30:20.768Z,14.42
2017-10-23T22:32:48.436Z,14.42
2017-10-23T22:35:16.057Z,14.46
2017-10-23T22:37:43.672Z,14.43
2017-10-23T22:40:11.352Z,14.44
2017-10-23T22:42:39.022Z,14.45
2017-10-23T22:45:06.687Z,14.45
2017-10-23T22:47:34.344Z,14.52
2017-10-23T22:50:02.012Z,14.52
2017-10-23T22:52:29.621Z,14.54
2017-10-23T22:54:57.323Z,14.53
2017-10-23T22:57:24.987Z,14.49
2017-10-23T22:59:52.583Z,14.49
2017-10-23T23:02:20.296Z,14.50
2017-10-23T23:04:47.960Z,14.49
2017-10-23T23:07:15.574Z,14.48
2017-10-23T23:09:43.360Z,14.44
2017-10-23T23:12:11.028Z,14.35
2017-10-23T23:14:38.703Z,14.27
2017-10-23T23:17:06.434Z,14.22
2017-10-23T23:19:34.099Z,14.19
2017-10-23T23:22:01.715Z,14.07
2017-10-23T23:24:29.376Z,14.08
2017-10-23T23:26:56.986Z,14.07
2017-10-23T23:29:24.655Z,14.05
2017-10-23T23:31:52.321Z,14.01
2017-10-23T23:34:19.942Z,14.03
2017-10-23T23:36:47.547Z,14.00
2017-10-23T23:39:15.210Z,14.04
2017-10-23T23:41:42.873Z,14.08
2017-10-23T23:44:10.480Z,14.03
2017-10-23T23:46:38.154Z,14.02
2017-10-23T23:49:05.820Z,14.01
2017-10-23T23:51:33.426Z,14.04
2017-10-23T23:54:01.080Z,14.01
2017-10-23T23:56:28.696Z,14.04
2017-10-23T23:58:56.299Z,14.05
